sensor_id;sensor_type;location;lat;lon;timestamp;pressure;altitude;pressure_sealevel;temperature;humidity
23619;BME280;18207;32.078;34.818;2023-01-25T00:01:04;101314.84;;;23.15;37.84
23619;BME280;18207;32.078;34.818;2023-01-25T00:03:35;101313.53;;;23.12;37.61
23619;BME280;18207;32.078;34.818;2023-01-25T00:06:09;101311.53;;;23.13;37.80
23619;BME280;18207;32.078;34.818;2023-01-25T00:08:39;101309.09;;;23.11;37.81
23619;BME280;18207;32.078;34.818;2023-01-25T00:11:10;101314.69;;;23.11;37.71
23619;BME280;18207;32.078;34.818;2023-01-25T00:13:41;101302.66;;;23.11;38.17
23619;BME280;18207;32.078;34.818;2023-01-25T00:16:12;101296.22;;;23.10;37.62
23619;BME280;18207;32.078;34.818;2023-01-25T00:18:43;101294.59;;;23.09;37.68
23619;BME280;18207;32.078;34.818;2023-01-25T00:21:18;101293.78;;;23.09;37.97
23619;BME280;18207;32.078;34.818;2023-01-25T00:23:49;101286.84;;;23.06;37.98
23619;BME280;18207;32.078;34.818;2023-01-25T00:26:20;101284.03;;;23.06;37.63
23619;BME280;18207;32.078;34.818;2023-01-25T00:28:53;101282.44;;;23.05;37.72
23619;BME280;18207;32.078;34.818;2023-01-25T00:31:37;101275.16;;;23.04;37.77
23619;BME280;18207;32.078;34.818;2023-01-25T00:34:43;101279.41;;;23.02;37.76
23619;BME280;18207;32.078;34.818;2023-01-25T00:37:35;101276.97;;;23.00;38.22
23619;BME280;18207;32.078;34.818;2023-01-25T00:40:09;101282.09;;;22.98;37.84
23619;BME280;18207;32.078;34.818;2023-01-25T00:42:39;101274.84;;;22.97;37.93
23619;BME280;18207;32.078;34.818;2023-01-25T00:45:11;101275.53;;;22.94;38.01
23619;BME280;18207;32.078;34.818;2023-01-25T00:47:42;101267.13;;;22.94;38.11
23619;BME280;18207;32.078;34.818;2023-01-25T00:50:21;101261.03;;;22.92;37.79
23619;BME280;18207;32.078;34.818;2023-01-25T00:52:53;101271.41;;;22.92;37.80
23619;BME280;18207;32.078;34.818;2023-01-25T00:55:23;101267.78;;;22.91;37.82
23619;BME280;18207;32.078;34.818;2023-01-25T00:57:54;101261.38;;;22.91;37.81
23619;BME280;18207;32.078;34.818;2023-01-25T01:00:24;101262.19;;;22.91;37.74
23619;BME280;18207;32.078;34.818;2023-01-25T01:02:55;101257.75;;;22.90;37.77
23619;BME280;18207;32.078;34.818;2023-01-25T01:05:26;101264.50;;;22.89;37.85
23619;BME280;18207;32.078;34.818;2023-01-25T01:07:58;101258.09;;;22.89;37.72
23619;BME280;18207;32.078;34.818;2023-01-25T01:10:28;101260.88;;;22.89;37.92
23619;BME280;18207;32.078;34.818;2023-01-25T01:12:58;101265.66;;;22.88;37.68
23619;BME280;18207;32.078;34.818;2023-01-25T01:15:28;101266.50;;;22.89;38.02
23619;BME280;18207;32.078;34.818;2023-01-25T01:17:59;101266.81;;;22.87;37.83
23619;BME280;18207;32.078;34.818;2023-01-25T01:20:30;101255.94;;;22.86;38.14
23619;BME280;18207;32.078;34.818;2023-01-25T01:23:02;101254.78;;;22.87;37.89
23619;BME280;18207;32.078;34.818;2023-01-25T01:25:33;101246.75;;;22.85;37.65
23619;BME280;18207;32.078;34.818;2023-01-25T01:28:04;101259.09;;;22.84;38.17
23619;BME280;18207;32.078;34.818;2023-01-25T01:30:35;101256.63;;;22.83;37.59
23619;BME280;18207;32.078;34.818;2023-01-25T01:33:05;101253.34;;;22.81;38.41
23619;BME280;18207;32.078;34.818;2023-01-25T01:35:41;101248.91;;;22.80;38.27
23619;BME280;18207;32.078;34.818;2023-01-25T01:38:16;101256.81;;;22.78;37.74
23619;BME280;18207;32.078;34.818;2023-01-25T01:40:46;101262.44;;;22.78;38.28
23619;BME280;18207;32.078;34.818;2023-01-25T01:43:19;101255.19;;;22.77;38.17
23619;BME280;18207;32.078;34.818;2023-01-25T01:45:54;101259.94;;;22.76;38.40
23619;BME280;18207;32.078;34.818;2023-01-25T01:48:35;101258.34;;;22.75;37.78
23619;BME280;18207;32.078;34.818;2023-01-25T01:51:15;101265.09;;;22.74;38.33
23619;BME280;18207;32.078;34.818;2023-01-25T01:53:53;101257.34;;;22.71;38.02
23619;BME280;18207;32.078;34.818;2023-01-25T01:56:32;101258.50;;;22.70;38.36
23619;BME280;18207;32.078;34.818;2023-01-25T01:59:05;101256.06;;;22.69;38.31
23619;BME280;18207;32.078;34.818;2023-01-25T02:01:37;101257.22;;;22.68;37.96
23619;BME280;18207;32.078;34.818;2023-01-25T02:04:08;101259.53;;;22.66;37.98
23619;BME280;18207;32.078;34.818;2023-01-25T02:06:46;101250.63;;;22.64;38.25
23619;BME280;18207;32.078;34.818;2023-01-25T02:09:24;101253.78;;;22.62;37.93
23619;BME280;18207;32.078;34.818;2023-01-25T02:11:59;101256.94;;;22.61;37.87
23619;BME280;18207;32.078;34.818;2023-01-25T02:14:30;101249.69;;;22.60;38.26
23619;BME280;18207;32.078;34.818;2023-01-25T02:17:02;101247.19;;;22.58;38.08
23619;BME280;18207;32.078;34.818;2023-01-25T02:19:53;101246.38;;;22.58;37.90
23619;BME280;18207;32.078;34.818;2023-01-25T02:22:38;101249.53;;;22.56;37.88
23619;BME280;18207;32.078;34.818;2023-01-25T02:25:15;101252.34;;;22.56;38.26
23619;BME280;18207;32.078;34.818;2023-01-25T02:27:52;101251.16;;;22.57;38.02
23619;BME280;18207;32.078;34.818;2023-01-25T02:30:24;101254.78;;;22.58;38.08
23619;BME280;18207;32.078;34.818;2023-01-25T02:32:55;101250.00;;;22.58;38.24
23619;BME280;18207;32.078;34.818;2023-01-25T02:35:42;101243.72;;;22.61;38.49
23619;BME280;18207;32.078;34.818;2023-01-25T02:38:15;101250.13;;;22.62;38.34
23619;BME280;18207;32.078;34.818;2023-01-25T02:41:05;101237.78;;;22.63;38.30
23619;BME280;18207;32.078;34.818;2023-01-25T02:43:37;101251.91;;;22.66;38.71
23619;BME280;18207;32.078;34.818;2023-01-25T02:46:15;101246.00;;;22.68;38.52
23619;BME280;18207;32.078;34.818;2023-01-25T02:48:47;101244.50;;;22.70;38.81
23619;BME280;18207;32.078;34.818;2023-01-25T02:51:18;101244.16;;;22.72;38.34
23619;BME280;18207;32.078;34.818;2023-01-25T02:53:49;101245.78;;;22.73;38.54
23619;BME280;18207;32.078;34.818;2023-01-25T02:56:21;101249.09;;;22.75;38.40
23619;BME280;18207;32.078;34.818;2023-01-25T02:58:52;101249.09;;;22.75;38.36
23619;BME280;18207;32.078;34.818;2023-01-25T03:01:23;101245.94;;;22.76;38.55
23619;BME280;18207;32.078;34.818;2023-01-25T03:03:54;101249.94;;;22.75;38.42
23619;BME280;18207;32.078;34.818;2023-01-25T03:06:26;101254.34;;;22.76;38.35
23619;BME280;18207;32.078;34.818;2023-01-25T03:09:00;101257.16;;;22.76;38.55
23619;BME280;18207;32.078;34.818;2023-01-25T03:11:35;101251.53;;;22.76;38.36
23619;BME280;18207;32.078;34.818;2023-01-25T03:14:05;101267.53;;;22.76;38.51
23619;BME280;18207;32.078;34.818;2023-01-25T03:16:36;101263.09;;;22.75;38.54
23619;BME280;18207;32.078;34.818;2023-01-25T03:19:06;101270.69;;;22.74;38.43
23619;BME280;18207;32.078;34.818;2023-01-25T03:21:40;101271.38;;;22.71;38.35
23619;BME280;18207;32.078;34.818;2023-01-25T03:24:10;101275.53;;;22.65;38.14
23619;BME280;18207;32.078;34.818;2023-01-25T03:26:43;101269.59;;;22.58;38.37
23619;BME280;18207;32.078;34.818;2023-01-25T03:29:30;101268.50;;;22.51;38.11
23619;BME280;18207;32.078;34.818;2023-01-25T03:32:00;101275.44;;;22.45;38.35
23619;BME280;18207;32.078;34.818;2023-01-25T03:34:31;101274.78;;;22.40;38.05
23619;BME280;18207;32.078;34.818;2023-01-25T03:37:02;101275.31;;;22.33;37.97
23619;BME280;18207;32.078;34.818;2023-01-25T03:39:33;101270.22;;;22.27;37.92
23619;BME280;18207;32.078;34.818;2023-01-25T03:42:05;101274.81;;;22.23;38.39
23619;BME280;18207;32.078;34.818;2023-01-25T03:44:36;101270.72;;;22.20;38.62
23619;BME280;18207;32.078;34.818;2023-01-25T03:47:06;101275.84;;;22.18;38.14
23619;BME280;18207;32.078;34.818;2023-01-25T03:49:38;101271.38;;;22.17;38.33
23619;BME280;18207;32.078;34.818;2023-01-25T03:52:09;101269.72;;;22.16;38.36
23619;BME280;18207;32.078;34.818;2023-01-25T03:54:39;101264.97;;;22.17;38.40
23619;BME280;18207;32.078;34.818;2023-01-25T03:57:12;101276.97;;;22.17;38.55
23619;BME280;18207;32.078;34.818;2023-01-25T03:59:42;101272.53;;;22.16;38.01
23619;BME280;18207;32.078;34.818;2023-01-25T04:02:13;101269.72;;;22.16;38.45
23619;BME280;18207;32.078;34.818;2023-01-25T04:04:43;101278.97;;;22.17;38.19
23619;BME280;18207;32.078;34.818;2023-01-25T04:07:14;101269.72;;;22.16;38.22
23619;BME280;18207;32.078;34.818;2023-01-25T04:09:45;101272.19;;;22.18;38.52
23619;BME280;18207;32.078;34.818;2023-01-25T04:12:19;101276.97;;;22.17;38.51
23619;BME280;18207;32.078;34.818;2023-01-25T04:14:49;101275.84;;;22.18;37.98
23619;BME280;18207;32.078;34.818;2023-01-25T04:17:20;101285.88;;;22.19;38.46
23619;BME280;18207;32.078;34.818;2023-01-25T04:19:51;101271.88;;;22.19;38.13
23619;BME280;18207;32.078;34.818;2023-01-25T04:22:21;101279.44;;;22.19;38.45
23619;BME280;18207;32.078;34.818;2023-01-25T04:24:51;101279.44;;;22.19;38.48
23619;BME280;18207;32.078;34.818;2023-01-25T04:27:24;101275.84;;;22.18;38.57
23619;BME280;18207;32.078;34.818;2023-01-25T04:29:54;101279.78;;;22.17;38.42
23619;BME280;18207;32.078;34.818;2023-01-25T04:32:24;101282.94;;;22.16;38.43
23619;BME280;18207;32.078;34.818;2023-01-25T04:34:56;101283.25;;;22.14;38.45
23619;BME280;18207;32.078;34.818;2023-01-25T04:37:26;101278.78;;;22.13;38.18
23619;BME280;18207;32.078;34.818;2023-01-25T04:39:56;101283.59;;;22.13;38.17
23619;BME280;18207;32.078;34.818;2023-01-25T04:42:28;101287.53;;;22.12;38.54
23619;BME280;18207;32.078;34.818;2023-01-25T04:44:58;101286.22;;;22.09;38.17
23619;BME280;18207;32.078;34.818;2023-01-25T04:47:28;101282.94;;;22.07;38.14
23619;BME280;18207;32.078;34.818;2023-01-25T04:49:59;101294.78;;;22.04;38.53
23619;BME280;18207;32.078;34.818;2023-01-25T04:52:29;101297.78;;;21.99;38.29
23619;BME280;18207;32.078;34.818;2023-01-25T04:55:00;101298.78;;;21.95;37.95
23619;BME280;18207;32.078;34.818;2023-01-25T04:57:32;101298.28;;;21.93;37.94
23619;BME280;18207;32.078;34.818;2023-01-25T05:00:03;101295.31;;;21.89;38.36
23619;BME280;18207;32.078;34.818;2023-01-25T05:02:33;101300.41;;;21.87;37.97
23619;BME280;18207;32.078;34.818;2023-01-25T05:05:05;101303.06;;;21.84;38.13
23619;BME280;18207;32.078;34.818;2023-01-25T05:07:36;101293.34;;;21.81;38.32
23619;BME280;18207;32.078;34.818;2023-01-25T05:10:08;101307.66;;;21.80;38.51
23619;BME280;18207;32.078;34.818;2023-01-25T05:12:40;101306.34;;;21.77;38.46
23619;BME280;18207;32.078;34.818;2023-01-25T05:15:11;101297.47;;;21.75;38.05
23619;BME280;18207;32.078;34.818;2023-01-25T05:17:41;101295.50;;;21.76;38.01
23619;BME280;18207;32.078;34.818;2023-01-25T05:20:15;101304.84;;;21.80;38.14
23619;BME280;18207;32.078;34.818;2023-01-25T05:22:52;101299.13;;;21.85;38.50
23619;BME280;18207;32.078;34.818;2023-01-25T05:25:23;101308.31;;;21.94;38.72
23619;BME280;18207;32.078;34.818;2023-01-25T05:28:11;101304.34;;;22.03;39.02
23619;BME280;18207;32.078;34.818;2023-01-25T05:30:42;101303.53;;;22.11;38.64
23619;BME280;18207;32.078;34.818;2023-01-25T05:33:13;101300.84;;;22.23;38.73
23619;BME280;18207;32.078;34.818;2023-01-25T05:35:43;101311.06;;;22.36;38.83
23619;BME280;18207;32.078;34.818;2023-01-25T05:38:15;101309.69;;;22.50;39.12
23619;BME280;18207;32.078;34.818;2023-01-25T05:40:47;101305.84;;;22.63;39.16
23619;BME280;18207;32.078;34.818;2023-01-25T05:43:21;101313.19;;;22.76;39.27
23619;BME280;18207;32.078;34.818;2023-01-25T05:45:54;101314.81;;;22.86;39.21
23619;BME280;18207;32.078;34.818;2023-01-25T05:48:28;101311.13;;;22.94;38.81
23619;BME280;18207;32.078;34.818;2023-01-25T05:50:58;101312.25;;;23.01;38.93
23619;BME280;18207;32.078;34.818;2023-01-25T05:53:35;101316.22;;;23.09;38.97
23619;BME280;18207;32.078;34.818;2023-01-25T05:56:07;101316.13;;;23.17;38.73
23619;BME280;18207;32.078;34.818;2023-01-25T05:58:40;101323.34;;;23.27;39.08
23619;BME280;18207;32.078;34.818;2023-01-25T06:01:10;101320.94;;;23.37;38.81
23619;BME280;18207;32.078;34.818;2023-01-25T06:03:41;101321.03;;;23.49;39.03
23619;BME280;18207;32.078;34.818;2023-01-25T06:06:12;101335.28;;;23.64;39.15
23619;BME280;18207;32.078;34.818;2023-01-25T06:08:42;101343.09;;;23.79;38.74
23619;BME280;18207;32.078;34.818;2023-01-25T06:11:16;101336.66;;;23.99;39.07
23619;BME280;18207;32.078;34.818;2023-01-25T06:13:49;101338.75;;;24.22;39.04
23619;BME280;18207;32.078;34.818;2023-01-25T06:16:19;101335.34;;;24.49;39.45
23619;BME280;18207;32.078;34.818;2023-01-25T06:18:59;101335.97;;;24.79;39.07
23619;BME280;18207;32.078;34.818;2023-01-25T06:21:29;101346.19;;;25.07;39.19
23619;BME280;18207;32.078;34.818;2023-01-25T06:24:00;101348.66;;;25.32;38.72
23619;BME280;18207;32.078;34.818;2023-01-25T06:26:31;101343.34;;;25.55;39.08
23619;BME280;18207;32.078;34.818;2023-01-25T06:29:04;101343.16;;;25.75;38.58
23619;BME280;18207;32.078;34.818;2023-01-25T06:31:35;101348.91;;;25.91;38.71
23619;BME280;18207;32.078;34.818;2023-01-25T06:34:06;101352.97;;;26.05;38.62
23619;BME280;18207;32.078;34.818;2023-01-25T06:36:36;101347.84;;;26.22;38.81
23619;BME280;18207;32.078;34.818;2023-01-25T06:39:07;101347.88;;;26.38;38.54
23619;BME280;18207;32.078;34.818;2023-01-25T06:41:38;101353.22;;;26.55;38.94
23619;BME280;18207;32.078;34.818;2023-01-25T06:44:11;101355.72;;;26.72;38.89
23619;BME280;18207;32.078;34.818;2023-01-25T06:46:42;101349.25;;;26.86;38.40
23619;BME280;18207;32.078;34.818;2023-01-25T06:49:12;101354.13;;;27.01;38.45
23619;BME280;18207;32.078;34.818;2023-01-25T06:51:42;101354.91;;;27.17;38.44
23619;BME280;18207;32.078;34.818;2023-01-25T06:54:12;101350.91;;;27.34;38.41
23619;BME280;18207;32.078;34.818;2023-01-25T06:56:43;101353.69;;;27.49;37.93
23619;BME280;18207;32.078;34.818;2023-01-25T06:59:16;101352.84;;;27.64;38.04
23619;BME280;18207;32.078;34.818;2023-01-25T07:01:46;101350.28;;;27.75;37.83
23619;BME280;18207;32.078;34.818;2023-01-25T07:04:16;101352.94;;;27.86;37.76
23619;BME280;18207;32.078;34.818;2023-01-25T07:06:46;101341.50;;;27.98;37.79
23619;BME280;18207;32.078;34.818;2023-01-25T07:09:15;101351.84;;;28.10;37.65
23619;BME280;18207;32.078;34.818;2023-01-25T07:11:50;101349.34;;;28.24;37.85
23619;BME280;18207;32.078;34.818;2023-01-25T07:14:22;101358.47;;;28.36;37.72
23619;BME280;18207;32.078;34.818;2023-01-25T07:16:56;101357.13;;;28.49;37.28
23619;BME280;18207;32.078;34.818;2023-01-25T07:19:30;101350.06;;;28.59;37.15
23619;BME280;18207;32.078;34.818;2023-01-25T07:22:01;101359.97;;;28.71;37.10
23619;BME280;18207;32.078;34.818;2023-01-25T07:24:32;101361.47;;;28.84;37.19
23619;BME280;18207;32.078;34.818;2023-01-25T07:27:03;101365.38;;;28.99;37.17
23619;BME280;18207;32.078;34.818;2023-01-25T07:29:35;101361.16;;;29.12;37.18
23619;BME280;18207;32.078;34.818;2023-01-25T07:32:06;101368.22;;;29.25;36.88
23619;BME280;18207;32.078;34.818;2023-01-25T07:34:36;101368.03;;;29.37;36.95
23619;BME280;18207;32.078;34.818;2023-01-25T07:37:06;101362.19;;;29.49;36.38
23619;BME280;18207;32.078;34.818;2023-01-25T07:39:37;101359.13;;;29.60;36.51
23619;BME280;18207;32.078;34.818;2023-01-25T07:42:15;101360.91;;;29.72;36.52
23619;BME280;18207;32.078;34.818;2023-01-25T07:44:47;101358.22;;;29.82;36.32
23619;BME280;18207;32.078;34.818;2023-01-25T07:47:18;101372.56;;;29.93;36.62
23619;BME280;18207;32.078;34.818;2023-01-25T07:49:49;101373.56;;;30.04;35.94
23619;BME280;18207;32.078;34.818;2023-01-25T07:52:20;101362.72;;;30.13;36.10
23619;BME280;18207;32.078;34.818;2023-01-25T07:54:55;101359.97;;;30.20;35.93
23619;BME280;18207;32.078;34.818;2023-01-25T07:57:28;101360.88;;;30.27;35.22
23619;BME280;18207;32.078;34.818;2023-01-25T08:00:01;101358.13;;;30.34;35.43
23619;BME280;18207;32.078;34.818;2023-01-25T08:02:34;101361.03;;;30.41;35.43
23619;BME280;18207;32.078;34.818;2023-01-25T08:05:05;101359.50;;;30.47;35.19
23619;BME280;18207;32.078;34.818;2023-01-25T08:07:37;101354.34;;;30.52;35.45
23619;BME280;18207;32.078;34.818;2023-01-25T08:10:09;101351.13;;;30.57;34.62
23619;BME280;18207;32.078;34.818;2023-01-25T08:12:44;101347.56;;;30.64;34.81
23619;BME280;18207;32.078;34.818;2023-01-25T08:15:17;101346.81;;;30.70;34.46
23619;BME280;18207;32.078;34.818;2023-01-25T08:17:47;101343.22;;;30.77;34.74
23619;BME280;18207;32.078;34.818;2023-01-25T08:20:17;101341.66;;;30.83;34.81
23619;BME280;18207;32.078;34.818;2023-01-25T08:22:51;101340.47;;;30.87;34.64
23619;BME280;18207;32.078;34.818;2023-01-25T08:25:22;101342.13;;;30.88;34.24
23619;BME280;18207;32.078;34.818;2023-01-25T08:27:53;101338.84;;;30.86;34.62
23619;BME280;18207;32.078;34.818;2023-01-25T08:30:26;101337.63;;;30.87;34.45
23619;BME280;18207;32.078;34.818;2023-01-25T08:32:56;101335.63;;;30.88;34.46
23619;BME280;18207;32.078;34.818;2023-01-25T08:35:26;101322.28;;;30.92;33.87
23619;BME280;18207;32.078;34.818;2023-01-25T08:37:57;101323.94;;;30.96;34.01
23619;BME280;18207;32.078;34.818;2023-01-25T08:40:28;101324.41;;;31.02;34.14
23619;BME280;18207;32.078;34.818;2023-01-25T08:43:01;101318.75;;;31.02;33.84
23619;BME280;18207;32.078;34.818;2023-01-25T08:45:34;101314.28;;;31.04;33.80
23619;BME280;18207;32.078;34.818;2023-01-25T08:48:04;101314.34;;;31.08;33.63
23619;BME280;18207;32.078;34.818;2023-01-25T08:50:35;101313.09;;;31.09;33.54
23619;BME280;18207;32.078;34.818;2023-01-25T08:53:08;101311.50;;;31.08;33.90
23619;BME280;18207;32.078;34.818;2023-01-25T08:55:40;101308.25;;;31.09;33.26
23619;BME280;18207;32.078;34.818;2023-01-25T08:58:12;101303.38;;;31.10;33.43
23619;BME280;18207;32.078;34.818;2023-01-25T09:00:46;101296.50;;;31.11;33.02
23619;BME280;18207;32.078;34.818;2023-01-25T09:03:16;101292.84;;;31.10;32.95
23619;BME280;18207;32.078;34.818;2023-01-25T09:05:48;101290.00;;;31.10;32.85
23619;BME280;18207;32.078;34.818;2023-01-25T09:08:18;101284.69;;;31.09;33.35
23619;BME280;18207;32.078;34.818;2023-01-25T09:10:48;101276.16;;;31.05;32.38
23619;BME280;18207;32.078;34.818;2023-01-25T09:13:19;101276.56;;;31.04;32.99
23619;BME280;18207;32.078;34.818;2023-01-25T09:15:52;101277.72;;;30.99;32.27
23619;BME280;18207;32.078;34.818;2023-01-25T09:18:28;101263.88;;;30.94;32.68
23619;BME280;18207;32.078;34.818;2023-01-25T09:21:04;101266.69;;;30.91;32.77
23619;BME280;18207;32.078;34.818;2023-01-25T09:23:35;101265.88;;;30.87;32.42
23619;BME280;18207;32.078;34.818;2023-01-25T09:26:18;101265.00;;;30.83;32.23
23619;BME280;18207;32.078;34.818;2023-01-25T09:28:52;101259.72;;;30.78;32.37
23619;BME280;18207;32.078;34.818;2023-01-25T09:31:25;101264.94;;;30.72;32.47
23619;BME280;18207;32.078;34.818;2023-01-25T09:33:56;101252.28;;;30.66;32.00
23619;BME280;18207;32.078;34.818;2023-01-25T09:36:27;101255.47;;;30.58;32.30
23619;BME280;18207;32.078;34.818;2023-01-25T09:38:57;101255.78;;;30.49;32.04
23619;BME280;18207;32.078;34.818;2023-01-25T09:45:07;101243.72;;;30.23;32.29
23619;BME280;18207;32.078;34.818;2023-01-25T09:47:50;101246.50;;;30.16;32.15
23619;BME280;18207;32.078;34.818;2023-01-25T09:50:34;101239.13;;;30.08;32.01
23619;BME280;18207;32.078;34.818;2023-01-25T09:53:22;101227.63;;;29.94;32.23
23619;BME280;18207;32.078;34.818;2023-01-25T09:55:59;101228.25;;;29.81;31.99
23619;BME280;18207;32.078;34.818;2023-01-25T09:58:36;101235.00;;;29.69;32.21
23619;BME280;18207;32.078;34.818;2023-01-25T10:01:24;101225.97;;;29.60;32.01
23619;BME280;18207;32.078;34.818;2023-01-25T10:04:15;101226.22;;;29.49;32.22
23619;BME280;18207;32.078;34.818;2023-01-25T10:06:55;101228.09;;;29.38;32.50
23619;BME280;18207;32.078;34.818;2023-01-25T10:09:46;101227.53;;;29.29;31.84
23619;BME280;18207;32.078;34.818;2023-01-25T10:12:23;101226.16;;;29.19;32.36
23619;BME280;18207;32.078;34.818;2023-01-25T10:14:57;101224.81;;;29.10;31.93
23619;BME280;18207;32.078;34.818;2023-01-25T10:17:45;101219.81;;;29.00;31.94
23619;BME280;18207;32.078;34.818;2023-01-25T10:20:57;101224.88;;;28.87;31.82
23619;BME280;18207;32.078;34.818;2023-01-25T10:24:01;101216.25;;;28.80;32.17
23619;BME280;18207;32.078;34.818;2023-01-25T10:26:36;101216.13;;;28.73;32.29
23619;BME280;18207;32.078;34.818;2023-01-25T10:29:18;101213.50;;;28.62;32.10
23619;BME280;18207;32.078;34.818;2023-01-25T10:31:58;101205.66;;;28.52;32.22
23619;BME280;18207;32.078;34.818;2023-01-25T10:34:40;101199.44;;;28.43;32.33
23619;BME280;18207;32.078;34.818;2023-01-25T10:37:31;101194.41;;;28.33;32.21
23619;BME280;18207;32.078;34.818;2023-01-25T10:40:16;101193.41;;;28.22;32.16
23619;BME280;18207;32.078;34.818;2023-01-25T10:42:55;101188.78;;;28.14;32.20
23619;BME280;18207;32.078;34.818;2023-01-25T10:45:28;101187.09;;;28.09;32.28
23619;BME280;18207;32.078;34.818;2023-01-25T10:48:06;101191.50;;;28.07;32.30
23619;BME280;18207;32.078;34.818;2023-01-25T10:50:48;101189.41;;;28.04;32.65
23619;BME280;18207;32.078;34.818;2023-01-25T10:53:37;101187.28;;;27.97;32.52
23619;BME280;18207;32.078;34.818;2023-01-25T10:56:23;101185.91;;;27.88;32.49
23619;BME280;18207;32.078;34.818;2023-01-25T10:59:20;101190.59;;;27.80;32.37
23619;BME280;18207;32.078;34.818;2023-01-25T11:01:54;101179.16;;;27.74;32.66
23619;BME280;18207;32.078;34.818;2023-01-25T11:04:32;101186.72;;;27.70;32.65
23619;BME280;18207;32.078;34.818;2023-01-25T11:07:04;101180.22;;;27.66;32.84
23619;BME280;18207;32.078;34.818;2023-01-25T11:09:45;101186.91;;;27.61;32.72
23619;BME280;18207;32.078;34.818;2023-01-25T11:12:18;101180.78;;;27.56;32.86
23619;BME280;18207;32.078;34.818;2023-01-25T11:14:49;101181.88;;;27.51;32.81
23619;BME280;18207;32.078;34.818;2023-01-25T11:17:30;101176.16;;;27.48;33.15
23619;BME280;18207;32.078;34.818;2023-01-25T11:20:17;101179.22;;;27.39;33.08
23619;BME280;18207;32.078;34.818;2023-01-25T11:22:54;101171.78;;;27.31;33.16
23619;BME280;18207;32.078;34.818;2023-01-25T11:25:31;101169.63;;;27.25;33.03
23619;BME280;18207;32.078;34.818;2023-01-25T11:28:17;101170.75;;;27.20;33.32
23619;BME280;18207;32.078;34.818;2023-01-25T11:30:58;101179.03;;;27.13;33.39
23619;BME280;18207;32.078;34.818;2023-01-25T11:33:28;101175.25;;;27.06;33.09
23619;BME280;18207;32.078;34.818;2023-01-25T11:36:16;101172.22;;;26.99;33.39
23619;BME280;18207;32.078;34.818;2023-01-25T11:42:05;101173.44;;;26.83;33.43
23619;BME280;18207;32.078;34.818;2023-01-25T11:51:41;101167.94;;;26.71;33.57
23619;BME280;18207;32.078;34.818;2023-01-25T11:54:43;101177.13;;;26.68;33.51
23619;BME280;18207;32.078;34.818;2023-01-25T12:01:07;101174.16;;;26.61;33.68
23619;BME280;18207;32.078;34.818;2023-01-25T12:04:31;101169.16;;;26.54;33.69
23619;BME280;18207;32.078;34.818;2023-01-25T12:07:19;101170.97;;;26.47;33.78
23619;BME280;18207;32.078;34.818;2023-01-25T12:10:24;101170.50;;;26.45;33.90
23619;BME280;18207;32.078;34.818;2023-01-25T12:13:04;101178.16;;;26.44;33.94
23619;BME280;18207;32.078;34.818;2023-01-25T12:16:07;101175.72;;;26.43;33.68
23619;BME280;18207;32.078;34.818;2023-01-25T12:19:08;101186.84;;;26.39;34.11
23619;BME280;18207;32.078;34.818;2023-01-25T12:22:09;101178.78;;;26.38;34.06
23619;BME280;18207;32.078;34.818;2023-01-25T12:24:58;101179.59;;;26.38;34.21
23619;BME280;18207;32.078;34.818;2023-01-25T12:27:46;101185.25;;;26.38;34.28
23619;BME280;18207;32.078;34.818;2023-01-25T12:30:28;101187.53;;;26.33;33.97
23619;BME280;18207;32.078;34.818;2023-01-25T12:33:12;101184.16;;;26.27;34.34
23619;BME280;18207;32.078;34.818;2023-01-25T12:35:51;101180.78;;;26.22;34.74
23619;BME280;18207;32.078;34.818;2023-01-25T12:38:33;101179.50;;;26.19;34.50
23619;BME280;18207;32.078;34.818;2023-01-25T12:41:27;101172.25;;;26.18;34.55
23619;BME280;18207;32.078;34.818;2023-01-25T12:44:14;101172.50;;;26.13;34.71
23619;BME280;18207;32.078;34.818;2023-01-25T12:46:58;101175.69;;;26.12;34.69
23619;BME280;18207;32.078;34.818;2023-01-25T12:49:41;101167.59;;;26.10;34.63
23619;BME280;18207;32.078;34.818;2023-01-25T12:52:31;101169.13;;;26.08;34.46
23619;BME280;18207;32.078;34.818;2023-01-25T12:55:13;101169.84;;;26.05;34.72
23619;BME280;18207;32.078;34.818;2023-01-25T12:57:57;101173.03;;;26.03;34.76
23619;BME280;18207;32.078;34.818;2023-01-25T13:00:43;101168.59;;;26.02;35.15
23619;BME280;18207;32.078;34.818;2023-01-25T13:03:34;101164.50;;;26.00;34.99
23619;BME280;18207;32.078;34.818;2023-01-25T13:06:19;101164.13;;;26.01;35.03
23619;BME280;18207;32.078;34.818;2023-01-25T13:09:05;101166.94;;;26.01;35.01
23619;BME280;18207;32.078;34.818;2023-01-25T13:11:41;101175.41;;;26.01;34.86
23619;BME280;18207;32.078;34.818;2023-01-25T13:14:35;101164.50;;;26.00;35.13
23619;BME280;18207;32.078;34.818;2023-01-25T13:17:20;101164.41;;;25.97;35.11
23619;BME280;18207;32.078;34.818;2023-01-25T13:19:55;101175.22;;;25.95;35.20
23619;BME280;18207;32.078;34.818;2023-01-25T13:22:58;101170.28;;;25.92;35.28
23619;BME280;18207;32.078;34.818;2023-01-25T13:25:36;101178.28;;;25.90;35.30
23619;BME280;18207;32.078;34.818;2023-01-25T13:31:46;101180.56;;;25.84;35.24
23619;BME280;18207;32.078;34.818;2023-01-25T13:34:59;101177.63;;;25.81;35.41
23619;BME280;18207;32.078;34.818;2023-01-25T13:37:35;101175.56;;;25.78;35.32
23619;BME280;18207;32.078;34.818;2023-01-25T13:40:32;101177.03;;;25.75;35.70
23619;BME280;18207;32.078;34.818;2023-01-25T13:43:18;101185.88;;;25.74;35.68
23619;BME280;18207;32.078;34.818;2023-01-25T13:45:54;101187.03;;;25.73;35.68